sensor_id;sensor_type;location;lat;lon;timestamp;pressure;altitude;pressure_sealevel;temperature;humidity
59194;BME280;44967;48.598;15.650;2023-05-20T00:00:16;98817.19;;;10.37;85.96
59194;BME280;44967;48.598;15.650;2023-05-20T00:02:42;98819.78;;;10.39;85.40
59194;BME280;44967;48.598;15.650;2023-05-20T00:05:08;98810.97;;;10.40;85.61
59194;BME280;44967;48.598;15.650;2023-05-20T00:07:33;98812.81;;;10.36;85.32
59194;BME280;44967;48.598;15.650;2023-05-20T00:09:59;98809.19;;;10.40;85.37
59194;BME280;44967;48.598;15.650;2023-05-20T00:12:25;98808.56;;;10.31;85.38
59194;BME280;44967;48.598;15.650;2023-05-20T00:14:51;98809.38;;;10.31;85.85
59194;BME280;44967;48.598;15.650;2023-05-20T00:17:16;98806.00;;;10.26;85.41
59194;BME280;44967;48.598;15.650;2023-05-20T00:19:42;98800.03;;;10.15;85.78
59194;BME280;44967;48.598;15.650;2023-05-20T00:22:07;98793.09;;;10.10;85.51
59194;BME280;44967;48.598;15.650;2023-05-20T00:24:33;98794.94;;;10.06;86.09
59194;BME280;44967;48.598;15.650;2023-05-20T00:26:59;98792.22;;;10.09;86.30
59194;BME280;44967;48.598;15.650;2023-05-20T00:29:24;98792.16;;;10.12;85.63
59194;BME280;44967;48.598;15.650;2023-05-20T00:31:50;98793.00;;;10.14;86.33
59194;BME280;44967;48.598;15.650;2023-05-20T00:34:16;98778.03;;;10.16;86.26
59194;BME280;44967;48.598;15.650;2023-05-20T00:36:42;98777.94;;;10.19;86.78
59194;BME280;44967;48.598;15.650;2023-05-20T00:39:07;98788.47;;;10.22;86.68
59194;BME280;44967;48.598;15.650;2023-05-20T00:41:33;98795.47;;;10.23;86.41
59194;BME280;44967;48.598;15.650;2023-05-20T00:43:59;98786.66;;;10.24;87.17
59194;BME280;44967;48.598;15.650;2023-05-20T00:46:26;98785.78;;;10.24;87.21
59194;BME280;44967;48.598;15.650;2023-05-20T00:48:52;98790.16;;;10.26;86.49
59194;BME280;44967;48.598;15.650;2023-05-20T00:51:18;98784.78;;;10.29;86.37
59194;BME280;44967;48.598;15.650;2023-05-20T00:53:45;98781.44;;;10.23;86.51
59194;BME280;44967;48.598;15.650;2023-05-20T00:56:11;98779.59;;;10.26;86.60
59194;BME280;44967;48.598;15.650;2023-05-20T00:58:37;98774.06;;;10.35;86.05
59194;BME280;44967;48.598;15.650;2023-05-20T01:01:03;98774.94;;;10.36;86.26
59194;BME280;44967;48.598;15.650;2023-05-20T01:03:30;98785.75;;;10.27;85.78
59194;BME280;44967;48.598;15.650;2023-05-20T01:05:56;98776.88;;;10.28;85.63
59194;BME280;44967;48.598;15.650;2023-05-20T01:08:22;98762.00;;;10.25;85.58
59194;BME280;44967;48.598;15.650;2023-05-20T01:10:55;98770.00;;;10.21;85.59
59194;BME280;44967;48.598;15.650;2023-05-20T01:13:29;98771.81;;;10.19;85.96
59194;BME280;44967;48.598;15.650;2023-05-20T01:15:59;98773.63;;;10.17;86.30
59194;BME280;44967;48.598;15.650;2023-05-20T01:18:26;98775.31;;;10.19;86.41
59194;BME280;44967;48.598;15.650;2023-05-20T01:20:55;98771.69;;;10.23;86.58
59194;BME280;44967;48.598;15.650;2023-05-20T01:23:52;98780.41;;;10.28;86.66
59194;BME280;44967;48.598;15.650;2023-05-20T01:26:18;98776.84;;;10.31;86.96
59194;BME280;44967;48.598;15.650;2023-05-20T01:28:46;98770.69;;;10.30;86.51
59194;BME280;44967;48.598;15.650;2023-05-20T01:31:23;98769.06;;;10.23;86.67
59194;BME280;44967;48.598;15.650;2023-05-20T01:33:54;98762.00;;;10.24;87.40
59194;BME280;44967;48.598;15.650;2023-05-20T01:36:24;98767.19;;;10.28;87.39
59194;BME280;44967;48.598;15.650;2023-05-20T01:38:52;98767.81;;;10.39;87.04
59194;BME280;44967;48.598;15.650;2023-05-20T01:41:19;98752.03;;;10.38;87.38
59194;BME280;44967;48.598;15.650;2023-05-20T01:43:45;98755.38;;;10.45;87.70
59194;BME280;44967;48.598;15.650;2023-05-20T01:46:11;98757.22;;;10.43;86.76
59194;BME280;44967;48.598;15.650;2023-05-20T01:48:37;98752.75;;;10.45;87.20
59194;BME280;44967;48.598;15.650;2023-05-20T01:51:05;98751.59;;;10.56;86.73
59194;BME280;44967;48.598;15.650;2023-05-20T01:53:31;98752.56;;;10.54;86.37
59194;BME280;44967;48.598;15.650;2023-05-20T01:55:57;98755.91;;;10.60;86.56
59194;BME280;44967;48.598;15.650;2023-05-20T01:58:23;98750.59;;;10.62;86.61
59194;BME280;44967;48.598;15.650;2023-05-20T02:00:48;98760.09;;;10.70;86.17
59194;BME280;44967;48.598;15.650;2023-05-20T02:03:14;98756.53;;;10.71;86.14
59194;BME280;44967;48.598;15.650;2023-05-20T02:05:40;98752.09;;;10.72;86.05
59194;BME280;44967;48.598;15.650;2023-05-20T02:08:06;98746.78;;;10.73;85.56
59194;BME280;44967;48.598;15.650;2023-05-20T02:10:31;98747.69;;;10.72;85.62
59194;BME280;44967;48.598;15.650;2023-05-20T02:12:57;98748.50;;;10.76;85.72
59194;BME280;44967;48.598;15.650;2023-05-20T02:15:23;98744.16;;;10.73;85.90
59194;BME280;44967;48.598;15.650;2023-05-20T02:17:49;98744.97;;;10.75;85.77
59194;BME280;44967;48.598;15.650;2023-05-20T02:20:15;98746.75;;;10.75;85.86
59194;BME280;44967;48.598;15.650;2023-05-20T02:22:41;98746.69;;;10.78;86.45
59194;BME280;44967;48.598;15.650;2023-05-20T02:25:07;98742.31;;;10.77;86.04
59194;BME280;44967;48.598;15.650;2023-05-20T02:27:35;98743.13;;;10.79;86.24
59194;BME280;44967;48.598;15.650;2023-05-20T02:30:01;98735.16;;;10.80;85.82
59194;BME280;44967;48.598;15.650;2023-05-20T02:32:29;98730.75;;;10.81;85.84
59194;BME280;44967;48.598;15.650;2023-05-20T02:34:55;98734.25;;;10.81;86.02
59194;BME280;44967;48.598;15.650;2023-05-20T02:37:20;98743.00;;;10.83;85.43
59194;BME280;44967;48.598;15.650;2023-05-20T02:39:46;98735.94;;;10.85;86.08
59194;BME280;44967;48.598;15.650;2023-05-20T02:42:12;98738.69;;;10.81;85.84
59194;BME280;44967;48.598;15.650;2023-05-20T02:44:38;98742.19;;;10.81;85.82
59194;BME280;44967;48.598;15.650;2023-05-20T02:47:04;98744.66;;;10.89;85.83
59194;BME280;44967;48.598;15.650;2023-05-20T02:49:29;98754.53;;;10.81;85.44
59194;BME280;44967;48.598;15.650;2023-05-20T02:51:55;98760.00;;;10.73;86.24
59194;BME280;44967;48.598;15.650;2023-05-20T02:54:21;98752.81;;;10.78;86.43
59194;BME280;44967;48.598;15.650;2023-05-20T02:56:47;98758.06;;;10.81;86.12
59194;BME280;44967;48.598;15.650;2023-05-20T02:59:12;98763.34;;;10.81;85.82
59194;BME280;44967;48.598;15.650;2023-05-20T03:01:38;98760.63;;;10.84;86.06
59194;BME280;44967;48.598;15.650;2023-05-20T03:04:04;98756.97;;;10.90;86.06
59194;BME280;44967;48.598;15.650;2023-05-20T03:06:30;98751.63;;;10.92;85.37
59194;BME280;44967;48.598;15.650;2023-05-20T03:08:57;98768.25;;;10.97;85.32
59194;BME280;44967;48.598;15.650;2023-05-20T03:11:23;98761.28;;;10.94;85.28
59194;BME280;44967;48.598;15.650;2023-05-20T03:13:49;98762.19;;;10.93;85.08
59194;BME280;44967;48.598;15.650;2023-05-20T03:16:17;98759.44;;;10.96;85.47
59194;BME280;44967;48.598;15.650;2023-05-20T03:18:43;98768.25;;;10.97;85.02
59194;BME280;44967;48.598;15.650;2023-05-20T03:21:08;98764.75;;;10.96;85.52
59194;BME280;44967;48.598;15.650;2023-05-20T03:23:34;98767.38;;;10.96;85.52
59194;BME280;44967;48.598;15.650;2023-05-20T03:26:00;98771.00;;;10.94;85.45
59194;BME280;44967;48.598;15.650;2023-05-20T03:28:26;98763.94;;;10.94;85.92
59194;BME280;44967;48.598;15.650;2023-05-20T03:30:51;98765.59;;;10.98;85.12
59194;BME280;44967;48.598;15.650;2023-05-20T03:33:17;98764.84;;;10.92;85.49
59194;BME280;44967;48.598;15.650;2023-05-20T03:35:43;98767.47;;;10.93;85.95
59194;BME280;44967;48.598;15.650;2023-05-20T03:38:09;98772.69;;;10.96;84.99
59194;BME280;44967;48.598;15.650;2023-05-20T03:40:35;98770.78;;;11.01;85.19
59194;BME280;44967;48.598;15.650;2023-05-20T03:43:00;98766.59;;;10.93;84.91
59194;BME280;44967;48.598;15.650;2023-05-20T03:45:26;98771.84;;;10.94;84.94
59194;BME280;44967;48.598;15.650;2023-05-20T03:47:52;98761.28;;;10.94;84.74
59194;BME280;44967;48.598;15.650;2023-05-20T03:50:17;98761.22;;;10.96;85.00
59194;BME280;44967;48.598;15.650;2023-05-20T03:52:43;98767.56;;;10.90;84.99
59194;BME280;44967;48.598;15.650;2023-05-20T03:55:09;98768.34;;;10.94;84.84
59194;BME280;44967;48.598;15.650;2023-05-20T03:57:35;98770.91;;;10.97;84.64
59194;BME280;44967;48.598;15.650;2023-05-20T04:00:03;98766.69;;;10.88;84.64
59194;BME280;44967;48.598;15.650;2023-05-20T04:02:35;98762.38;;;10.84;85.02
59194;BME280;44967;48.598;15.650;2023-05-20T04:05:03;98766.00;;;10.80;85.02
59194;BME280;44967;48.598;15.650;2023-05-20T04:07:29;98773.91;;;10.81;84.74
59194;BME280;44967;48.598;15.650;2023-05-20T04:09:57;98783.53;;;10.84;85.44
59194;BME280;44967;48.598;15.650;2023-05-20T04:12:23;98778.34;;;10.81;85.27
59194;BME280;44967;48.598;15.650;2023-05-20T04:14:58;98779.38;;;10.74;85.71
59194;BME280;44967;48.598;15.650;2023-05-20T04:17:29;98780.00;;;10.85;85.19
59194;BME280;44967;48.598;15.650;2023-05-20T04:19:56;98783.53;;;10.85;85.22
59194;BME280;44967;48.598;15.650;2023-05-20T04:22:22;98790.00;;;10.72;85.21
59194;BME280;44967;48.598;15.650;2023-05-20T04:24:48;98787.31;;;10.74;85.86
59194;BME280;44967;48.598;15.650;2023-05-20T04:27:14;98780.22;;;10.76;85.31
59194;BME280;44967;48.598;15.650;2023-05-20T04:29:41;98783.53;;;10.84;85.40
59194;BME280;44967;48.598;15.650;2023-05-20T04:32:16;98779.34;;;10.75;85.74
59194;BME280;44967;48.598;15.650;2023-05-20T04:34:43;98789.13;;;10.72;85.78
59194;BME280;44967;48.598;15.650;2023-05-20T04:37:10;98798.59;;;10.82;85.82
59194;BME280;44967;48.598;15.650;2023-05-20T04:39:36;98795.69;;;10.91;85.60
59194;BME280;44967;48.598;15.650;2023-05-20T04:42:02;98791.22;;;10.95;84.90
59194;BME280;44967;48.598;15.650;2023-05-20T04:44:28;98788.47;;;10.99;85.37
59194;BME280;44967;48.598;15.650;2023-05-20T04:46:54;98784.84;;;11.03;84.54
59194;BME280;44967;48.598;15.650;2023-05-20T04:49:23;98787.41;;;11.06;85.16
59194;BME280;44967;48.598;15.650;2023-05-20T04:51:51;98785.41;;;11.16;84.50
59194;BME280;44967;48.598;15.650;2023-05-20T04:54:17;98787.78;;;10.91;84.62
59194;BME280;44967;48.598;15.650;2023-05-20T04:56:44;98784.03;;;11.01;85.46
59194;BME280;44967;48.598;15.650;2023-05-20T04:59:11;98790.97;;;11.05;85.13
59194;BME280;44967;48.598;15.650;2023-05-20T05:01:37;98784.75;;;11.06;84.84
59194;BME280;44967;48.598;15.650;2023-05-20T05:04:03;98785.50;;;11.11;84.53
59194;BME280;44967;48.598;15.650;2023-05-20T05:06:28;98777.31;;;11.22;84.57
59194;BME280;44967;48.598;15.650;2023-05-20T05:08:54;98780.91;;;11.19;84.76
59194;BME280;44967;48.598;15.650;2023-05-20T05:11:20;98777.13;;;11.29;84.46
59194;BME280;44967;48.598;15.650;2023-05-20T05:13:45;98774.34;;;11.34;84.06
59194;BME280;44967;48.598;15.650;2023-05-20T05:16:11;98771.66;;;11.35;84.53
59194;BME280;44967;48.598;15.650;2023-05-20T05:18:37;98761.84;;;11.41;83.92
59194;BME280;44967;48.598;15.650;2023-05-20T05:21:04;98765.19;;;11.47;83.76
59194;BME280;44967;48.598;15.650;2023-05-20T05:23:31;98751.84;;;11.52;83.60
59194;BME280;44967;48.598;15.650;2023-05-20T05:25:57;98770.34;;;11.53;83.10
59194;BME280;44967;48.598;15.650;2023-05-20T05:28:23;98783.47;;;11.56;83.76
59194;BME280;44967;48.598;15.650;2023-05-20T05:30:49;98786.94;;;11.58;83.05
59194;BME280;44967;48.598;15.650;2023-05-20T05:33:15;98777.56;;;11.47;82.97
59194;BME280;44967;48.598;15.650;2023-05-20T05:35:42;98782.91;;;11.45;83.56
59194;BME280;44967;48.598;15.650;2023-05-20T05:38:08;98778.34;;;11.50;83.35
59194;BME280;44967;48.598;15.650;2023-05-20T05:40:34;98783.91;;;11.40;83.44
59194;BME280;44967;48.598;15.650;2023-05-20T05:43:00;98788.97;;;11.49;83.01
59194;BME280;44967;48.598;15.650;2023-05-20T05:45:26;98788.88;;;11.52;83.32
59194;BME280;44967;48.598;15.650;2023-05-20T05:47:53;98805.22;;;11.67;83.43
59194;BME280;44967;48.598;15.650;2023-05-20T05:50:19;98803.56;;;11.63;83.01
59194;BME280;44967;48.598;15.650;2023-05-20T05:52:44;98798.25;;;11.65;83.26
59194;BME280;44967;48.598;15.650;2023-05-20T05:55:11;98790.31;;;11.65;82.96
59194;BME280;44967;48.598;15.650;2023-05-20T05:57:36;98786.63;;;11.72;82.54
59194;BME280;44967;48.598;15.650;2023-05-20T06:00:03;98805.91;;;11.77;83.06
59194;BME280;44967;48.598;15.650;2023-05-20T06:02:29;98791.72;;;11.78;82.91
59194;BME280;44967;48.598;15.650;2023-05-20T06:04:54;98789.84;;;11.83;82.89
59194;BME280;44967;48.598;15.650;2023-05-20T06:07:21;98794.75;;;11.97;82.34
59194;BME280;44967;48.598;15.650;2023-05-20T06:09:48;98787.41;;;12.06;81.62
59194;BME280;44967;48.598;15.650;2023-05-20T06:12:13;98784.66;;;12.09;81.69
59194;BME280;44967;48.598;15.650;2023-05-20T06:14:39;98794.44;;;12.07;81.65
59194;BME280;44967;48.598;15.650;2023-05-20T06:17:05;98792.81;;;12.03;81.37
59194;BME280;44967;48.598;15.650;2023-05-20T06:19:30;98794.78;;;11.95;81.52
59194;BME280;44967;48.598;15.650;2023-05-20T06:21:56;98793.03;;;11.96;81.79
59194;BME280;44967;48.598;15.650;2023-05-20T06:24:23;98782.06;;;12.08;81.70
59194;BME280;44967;48.598;15.650;2023-05-20T06:26:48;98783.66;;;12.13;81.78
59194;BME280;44967;48.598;15.650;2023-05-20T06:29:15;98783.66;;;12.13;81.71
59194;BME280;44967;48.598;15.650;2023-05-20T06:31:41;98777.09;;;12.26;81.06
59194;BME280;44967;48.598;15.650;2023-05-20T06:34:06;98781.31;;;12.34;80.41
59194;BME280;44967;48.598;15.650;2023-05-20T06:36:32;98775.19;;;12.32;80.04
59194;BME280;44967;48.598;15.650;2023-05-20T06:38:58;98779.44;;;12.37;79.96
59194;BME280;44967;48.598;15.650;2023-05-20T06:41:23;98785.38;;;12.45;79.76
59194;BME280;44967;48.598;15.650;2023-05-20T06:43:50;98785.34;;;12.47;80.33
59194;BME280;44967;48.598;15.650;2023-05-20T06:46:15;98781.97;;;12.69;78.88
59194;BME280;44967;48.598;15.650;2023-05-20T06:48:41;98790.53;;;12.79;78.95
59194;BME280;44967;48.598;15.650;2023-05-20T06:51:07;98779.28;;;12.71;78.25
59194;BME280;44967;48.598;15.650;2023-05-20T06:53:34;98777.78;;;12.62;79.59
59194;BME280;44967;48.598;15.650;2023-05-20T06:56:00;98773.25;;;12.66;79.58
59194;BME280;44967;48.598;15.650;2023-05-20T06:58:26;98767.78;;;12.72;78.64
59194;BME280;44967;48.598;15.650;2023-05-20T07:00:52;98772.88;;;12.78;79.00
59194;BME280;44967;48.598;15.650;2023-05-20T07:03:18;98758.31;;;12.91;79.11
59194;BME280;44967;48.598;15.650;2023-05-20T07:05:43;98749.94;;;13.03;77.79
59194;BME280;44967;48.598;15.650;2023-05-20T07:08:09;98751.78;;;13.01;78.10
59194;BME280;44967;48.598;15.650;2023-05-20T07:10:36;98758.72;;;13.05;77.93
59194;BME280;44967;48.598;15.650;2023-05-20T07:13:02;98756.56;;;13.18;77.02
59194;BME280;44967;48.598;15.650;2023-05-20T07:15:27;98748.63;;;13.16;78.06
59194;BME280;44967;48.598;15.650;2023-05-20T07:17:53;98754.50;;;13.26;77.43
59194;BME280;44967;48.598;15.650;2023-05-20T07:20:20;98749.66;;;13.39;77.43
59194;BME280;44967;48.598;15.650;2023-05-20T07:22:45;98754.09;;;13.38;77.15
59194;BME280;44967;48.598;15.650;2023-05-20T07:25:13;98758.66;;;13.35;77.74
59194;BME280;44967;48.598;15.650;2023-05-20T07:27:38;98753.69;;;13.50;76.91
59194;BME280;44967;48.598;15.650;2023-05-20T07:30:05;98764.34;;;13.49;76.42
59194;BME280;44967;48.598;15.650;2023-05-20T07:32:31;98766.44;;;13.64;76.44
59194;BME280;44967;48.598;15.650;2023-05-20T07:34:56;98756.81;;;13.61;75.75
59194;BME280;44967;48.598;15.650;2023-05-20T07:37:23;98758.88;;;13.78;76.33
59194;BME280;44967;48.598;15.650;2023-05-20T07:39:48;98760.69;;;14.01;75.82
59194;BME280;44967;48.598;15.650;2023-05-20T07:42:14;98761.31;;;14.07;75.64
59194;BME280;44967;48.598;15.650;2023-05-20T07:44:40;98754.19;;;14.33;74.80
59194;BME280;44967;48.598;15.650;2023-05-20T07:47:05;98753.22;;;14.35;74.63
59194;BME280;44967;48.598;15.650;2023-05-20T07:49:31;98760.72;;;14.47;74.29
59194;BME280;44967;48.598;15.650;2023-05-20T07:51:57;98744.16;;;14.41;74.02
59194;BME280;44967;48.598;15.650;2023-05-20T07:54:23;98751.13;;;14.43;74.17
59194;BME280;44967;48.598;15.650;2023-05-20T07:56:49;98750.38;;;14.40;73.47
59194;BME280;44967;48.598;15.650;2023-05-20T07:59:15;98740.56;;;14.42;73.97
59194;BME280;44967;48.598;15.650;2023-05-20T08:01:40;98749.06;;;14.27;74.58
59194;BME280;44967;48.598;15.650;2023-05-20T08:04:07;98735.31;;;14.40;74.66
59194;BME280;44967;48.598;15.650;2023-05-20T08:06:33;98739.41;;;14.49;74.24
59194;BME280;44967;48.598;15.650;2023-05-20T08:09:00;98739.34;;;14.72;73.66
59194;BME280;44967;48.598;15.650;2023-05-20T08:11:26;98745.72;;;14.68;73.47
59194;BME280;44967;48.598;15.650;2023-05-20T08:13:52;98745.03;;;14.63;73.40
59194;BME280;44967;48.598;15.650;2023-05-20T08:16:20;98743.53;;;14.33;73.96
59194;BME280;44967;48.598;15.650;2023-05-20T08:18:46;98731.47;;;14.24;74.73
59194;BME280;44967;48.598;15.650;2023-05-20T08:21:12;98732.56;;;14.65;74.21
59194;BME280;44967;48.598;15.650;2023-05-20T08:23:38;98731.31;;;14.95;73.17
59194;BME280;44967;48.598;15.650;2023-05-20T08:26:04;98733.16;;;15.15;73.05
59194;BME280;44967;48.598;15.650;2023-05-20T08:28:30;98722.22;;;15.63;70.48
59194;BME280;44967;48.598;15.650;2023-05-20T08:30:56;98721.91;;;15.49;71.08
59194;BME280;44967;48.598;15.650;2023-05-20T08:33:24;98720.41;;;16.23;69.93
59194;BME280;44967;48.598;15.650;2023-05-20T08:35:51;98717.69;;;16.98;66.41
59194;BME280;44967;48.598;15.650;2023-05-20T08:38:16;98715.53;;;17.40;67.01
59194;BME280;44967;48.598;15.650;2023-05-20T08:40:43;98716.16;;;17.45;66.08
59194;BME280;44967;48.598;15.650;2023-05-20T08:43:09;98708.47;;;17.73;66.25
59194;BME280;44967;48.598;15.650;2023-05-20T08:45:37;98702.69;;;18.94;63.68
59194;BME280;44967;48.598;15.650;2023-05-20T08:48:03;98701.66;;;19.86;60.01
59194;BME280;44967;48.598;15.650;2023-05-20T08:50:32;98695.91;;;19.48;59.65
59194;BME280;44967;48.598;15.650;2023-05-20T08:52:58;98702.94;;;19.50;60.24
59194;BME280;44967;48.598;15.650;2023-05-20T08:55:32;98695.28;;;18.67;62.11
59194;BME280;44967;48.598;15.650;2023-05-20T08:57:59;98684.00;;;18.45;63.23
59194;BME280;44967;48.598;15.650;2023-05-20T09:00:24;98685.06;;;17.94;65.89
59194;BME280;44967;48.598;15.650;2023-05-20T09:02:54;98687.16;;;17.55;66.59
59194;BME280;44967;48.598;15.650;2023-05-20T09:05:20;98686.38;;;17.53;66.40
59194;BME280;44967;48.598;15.650;2023-05-20T09:07:46;98694.09;;;17.41;66.95
59194;BME280;44967;48.598;15.650;2023-05-20T09:10:12;98685.22;;;17.58;67.50
59194;BME280;44967;48.598;15.650;2023-05-20T09:12:38;98676.72;;;17.67;67.12
59194;BME280;44967;48.598;15.650;2023-05-20T09:15:05;98674.91;;;17.68;66.46
59194;BME280;44967;48.598;15.650;2023-05-20T09:17:34;98674.22;;;17.97;66.82
59194;BME280;44967;48.598;15.650;2023-05-20T09:20:04;98667.56;;;17.88;67.09
59194;BME280;44967;48.598;15.650;2023-05-20T09:22:30;98673.81;;;18.05;66.82
59194;BME280;44967;48.598;15.650;2023-05-20T09:24:56;98672.66;;;18.57;65.90
59194;BME280;44967;48.598;15.650;2023-05-20T09:27:22;98667.56;;;19.14;63.94
59194;BME280;44967;48.598;15.650;2023-05-20T09:29:50;98669.28;;;19.74;61.34
59194;BME280;44967;48.598;15.650;2023-05-20T09:32:19;98673.94;;;20.28;60.38
59194;BME280;44967;48.598;15.650;2023-05-20T09:34:46;98665.97;;;20.54;58.63
59194;BME280;44967;48.598;15.650;2023-05-20T09:37:13;98668.66;;;20.68;58.67
59194;BME280;44967;48.598;15.650;2023-05-20T09:40:02;98666.38;;;20.48;58.58
59194;BME280;44967;48.598;15.650;2023-05-20T09:42:39;98670.53;;;19.83;60.63
59194;BME280;44967;48.598;15.650;2023-05-20T09:45:07;98667.25;;;19.78;61.44
59194;BME280;44967;48.598;15.650;2023-05-20T09:47:36;98651.66;;;19.70;62.56
59194;BME280;44967;48.598;15.650;2023-05-20T09:50:05;98663.44;;;20.10;61.50
59194;BME280;44967;48.598;15.650;2023-05-20T09:52:34;98656.06;;;19.86;62.08
59194;BME280;44967;48.598;15.650;2023-05-20T09:55:02;98651.53;;;19.72;62.05
59194;BME280;44967;48.598;15.650;2023-05-20T09:57:33;98647.03;;;19.58;62.72
59194;BME280;44967;48.598;15.650;2023-05-20T10:00:00;98647.91;;;19.59;62.21
59194;BME280;44967;48.598;15.650;2023-05-20T10:02:27;98652.50;;;19.41;64.30
59194;BME280;44967;48.598;15.650;2023-05-20T10:04:54;98650.66;;;19.43;65.82
59194;BME280;44967;48.598;15.650;2023-05-20T10:21:15;98622.91;;;21.09;61.20
59194;BME280;44967;48.598;15.650;2023-05-20T10:23:41;98620.91;;;21.13;60.71
59194;BME280;44967;48.598;15.650;2023-05-20T10:26:07;98620.69;;;21.16;61.10
59194;BME280;44967;48.598;15.650;2023-05-20T10:28:34;98615.34;;;21.41;60.80
59194;BME280;44967;48.598;15.650;2023-05-20T10:31:19;98613.31;;;21.57;60.49
59194;BME280;44967;48.598;15.650;2023-05-20T10:33:46;98608.78;;;21.71;60.96
59194;BME280;44967;48.598;15.650;2023-05-20T10:36:25;98618.28;;;21.76;59.65
59194;BME280;44967;48.598;15.650;2023-05-20T10:38:52;98610.09;;;21.40;59.38
59194;BME280;44967;48.598;15.650;2023-05-20T10:41:26;98600.47;;;21.23;59.58
59194;BME280;44967;48.598;15.650;2023-05-20T10:44:05;98594.28;;;21.48;60.36
59194;BME280;44967;48.598;15.650;2023-05-20T10:46:32;98591.69;;;21.84;59.62
59194;BME280;44967;48.598;15.650;2023-05-20T10:48:58;98594.47;;;21.32;60.05
59194;BME280;44967;48.598;15.650;2023-05-20T10:51:27;98593.19;;;21.50;59.92
59194;BME280;44967;48.598;15.650;2023-05-20T10:53:54;98587.38;;;21.69;60.43
59194;BME280;44967;48.598;15.650;2023-05-20T10:56:25;98592.31;;;21.88;59.41
59194;BME280;44967;48.598;15.650;2023-05-20T10:58:52;98584.13;;;22.02;58.11
59194;BME280;44967;48.598;15.650;2023-05-20T11:01:23;98586.19;;;22.47;58.44
59194;BME280;44967;48.598;15.650;2023-05-20T11:03:50;98578.00;;;22.73;57.42
59194;BME280;44967;48.598;15.650;2023-05-20T11:06:17;98583.00;;;22.90;57.53
59194;BME280;44967;48.598;15.650;2023-05-20T11:08:44;98576.56;;;22.80;55.78
59194;BME280;44967;48.598;15.650;2023-05-20T11:11:11;98566.41;;;22.60;56.62
59194;BME280;44967;48.598;15.650;2023-05-20T11:13:37;98566.50;;;22.71;57.41
59194;BME280;44967;48.598;15.650;2023-05-20T11:16:04;98574.47;;;22.36;57.31
59194;BME280;44967;48.598;15.650;2023-05-20T11:18:29;98567.56;;;22.08;58.47
59194;BME280;44967;48.598;15.650;2023-05-20T11:21:00;98565.75;;;21.96;58.68
59194;BME280;44967;48.598;15.650;2023-05-20T11:23:27;98561.56;;;21.92;59.05
59194;BME280;44967;48.598;15.650;2023-05-20T11:25:54;98557.31;;;22.00;58.33
59194;BME280;44967;48.598;15.650;2023-05-20T11:28:21;98564.56;;;22.00;59.53
59194;BME280;44967;48.598;15.650;2023-05-20T11:30:48;98564.97;;;21.81;58.64
59194;BME280;44967;48.598;15.650;2023-05-20T11:33:15;98567.66;;;22.06;58.56
59194;BME280;44967;48.598;15.650;2023-05-20T11:35:49;98563.97;;;22.20;58.95
59194;BME280;44967;48.598;15.650;2023-05-20T11:38:19;98558.44;;;22.58;58.03
59194;BME280;44967;48.598;15.650;2023-05-20T11:40:52;98549.44;;;22.94;58.22
59194;BME280;44967;48.598;15.650;2023-05-20T11:43:19;98546.78;;;22.58;56.64
59194;BME280;44967;48.598;15.650;2023-05-20T11:45:53;98552.81;;;22.61;56.66
59194;BME280;44967;48.598;15.650;2023-05-20T11:48:22;98552.47;;;22.66;57.15
59194;BME280;44967;48.598;15.650;2023-05-20T11:50:48;98559.31;;;22.59;57.21
59194;BME280;44967;48.598;15.650;2023-05-20T11:53:18;98557.03;;;22.52;56.18
59194;BME280;44967;48.598;15.650;2023-05-20T11:55:45;98559.41;;;22.57;56.47
59194;BME280;44967;48.598;15.650;2023-05-20T11:58:21;98555.25;;;22.64;56.39
59194;BME280;44967;48.598;15.650;2023-05-20T12:00:47;98546.47;;;22.86;56.12
59194;BME280;44967;48.598;15.650;2023-05-20T12:03:14;98532.78;;;23.00;55.29
59194;BME280;44967;48.598;15.650;2023-05-20T12:05:41;98537.19;;;23.01;54.31
59194;BME280;44967;48.598;15.650;2023-05-20T12:08:07;98547.06;;;22.78;55.27
59194;BME280;44967;48.598;15.650;2023-05-20T12:10:34;98532.31;;;22.47;55.73
59194;BME280;44967;48.598;15.650;2023-05-20T12:13:01;98538.03;;;22.19;56.94
59194;BME280;44967;48.598;15.650;2023-05-20T12:15:27;98525.72;;;22.51;56.69
59194;BME280;44967;48.598;15.650;2023-05-20T12:17:53;98532.75;;;22.41;57.08
59194;BME280;44967;48.598;15.650;2023-05-20T12:20:23;98529.66;;;22.35;56.63
59194;BME280;44967;48.598;15.650;2023-05-20T12:22:52;98526.50;;;22.41;57.48
59194;BME280;44967;48.598;15.650;2023-05-20T12:25:20;98526.66;;;22.98;56.31
59194;BME280;44967;48.598;15.650;2023-05-20T12:27:47;98523.28;;;23.29;55.02
59194;BME280;44967;48.598;15.650;2023-05-20T12:30:20;98520.94;;;23.14;53.79
59194;BME280;44967;48.598;15.650;2023-05-20T12:32:47;98517.75;;;22.74;54.29
59194;BME280;44967;48.598;15.650;2023-05-20T12:35:14;98514.81;;;22.77;53.71
59194;BME280;44967;48.598;15.650;2023-05-20T12:37:40;98515.78;;;23.11;53.89
59194;BME280;44967;48.598;15.650;2023-05-20T12:40:08;98507.38;;;23.37;53.97
59194;BME280;44967;48.598;15.650;2023-05-20T12:42:36;98508.75;;;23.43;54.31
59194;BME280;44967;48.598;15.650;2023-05-20T12:45:02;98501.56;;;23.31;52.42
59194;BME280;44967;48.598;15.650;2023-05-20T12:47:29;98511.44;;;22.97;53.51
59194;BME280;44967;48.598;15.650;2023-05-20T12:49:55;98508.91;;;23.07;53.11
59194;BME280;44967;48.598;15.650;2023-05-20T12:52:20;98508.25;;;22.92;53.08
59194;BME280;44967;48.598;15.650;2023-05-20T12:54:46;98509.19;;;23.15;53.23
59194;BME280;44967;48.598;15.650;2023-05-20T12:57:12;98510.91;;;23.27;52.48
59194;BME280;44967;48.598;15.650;2023-05-20T12:59:38;98505.03;;;23.33;51.97
59194;BME280;44967;48.598;15.650;2023-05-20T13:02:04;98498.88;;;23.20;51.20